Time;durP1;ratioP1;P1;durP2;ratioP2;P2;SDS_P1;SDS_P2;PMS_P1;PMS_P2;Temp;Humidity;BMP_temperature;BMP_pressure;BME280_temperature;BME280_humidity;BME280_pressure;Samples;Min_cycle;Max_cycle;Signal;HPM_P1;HPM_P2
2023/06/13 00:01:18;;;;;;;9.20;4.22;;;20.60;88.20;;;;;;4920704;29;20041;-95
2023/06/13 00:03:47;;;;;;;5.88;4.18;;;20.50;88.10;;;;;;4935963;29;20056;-93
2023/06/13 00:06:20;;;;;;;8.00;4.47;;;20.40;88.20;;;;;;4904897;29;20103;-94
2023/06/13 00:08:54;;;;;;;10.15;4.57;;;20.40;88.00;;;;;;4888952;29;20401;-94
2023/06/13 00:11:22;;;;;;;10.40;5.43;;;20.30;88.70;;;;;;4904635;29;20336;-93
2023/06/13 00:13:53;;;;;;;8.65;4.57;;;20.30;87.80;;;;;;4904298;29;20088;-94
2023/06/13 00:16:36;;;;;;;7.97;4.55;;;20.30;88.20;;;;;;4937563;29;20035;-95
2023/06/13 00:19:05;;;;;;;7.10;4.47;;;20.30;88.10;;;;;;4923354;29;20094;-94
2023/06/13 00:21:42;;;;;;;10.07;4.75;;;20.20;88.20;;;;;;4950253;29;20039;-94
2023/06/13 00:24:18;;;;;;;10.13;4.35;;;20.10;88.10;;;;;;4926380;29;20484;-93
2023/06/13 00:26:56;;;;;;;8.88;5.05;;;20.20;88.40;;;;;;4926975;29;20039;-93
2023/06/13 00:29:42;;;;;;;8.50;4.93;;;20.10;88.40;;;;;;4944545;29;20031;-94
2023/06/13 00:32:09;;;;;;;8.35;5.10;;;20.00;88.40;;;;;;4941805;29;20047;-93
2023/06/13 00:34:36;;;;;;;7.40;4.80;;;20.00;88.30;;;;;;4941977;29;20031;-94
2023/06/13 00:37:16;;;;;;;6.63;4.75;;;20.00;88.40;;;;;;4911505;29;20035;-93
2023/06/13 00:39:48;;;;;;;7.07;4.45;;;20.00;88.40;;;;;;4942532;29;20063;-94
2023/06/13 00:42:25;;;;;;;7.03;4.78;;;19.90;88.50;;;;;;4941016;29;20110;-94
2023/06/13 00:45:24;;;;;;;8.10;4.75;;;19.90;88.30;;;;;;4908518;29;20078;-94
2023/06/13 00:48:01;;;;;;;8.82;4.63;;;19.80;88.40;;;;;;4927019;29;20075;-94
2023/06/13 00:50:46;;;;;;;6.65;4.35;;;19.80;88.50;;;;;;4926928;29;20027;-93
2023/06/13 00:53:17;;;;;;;6.90;4.22;;;19.70;88.60;;;;;;4958087;29;20027;-93
2023/06/13 00:55:49;;;;;;;13.60;4.72;;;19.70;88.80;;;;;;4915663;29;20416;-94
2023/06/13 00:58:26;;;;;;;8.68;4.38;;;19.70;88.90;;;;;;4925933;29;20047;-94
2023/06/13 01:01:03;;;;;;;7.83;4.23;;;19.60;89.20;;;;;;4912591;29;20031;-95
2023/06/13 01:03:41;;;;;;;8.20;3.92;;;19.60;89.50;;;;;;4911309;29;20038;-94
2023/06/13 01:06:14;;;;;;;7.07;3.75;;;19.60;89.70;;;;;;4891976;29;20042;-95
2023/06/13 01:08:42;;;;;;;12.02;4.22;;;19.50;89.70;;;;;;4888436;29;20039;-94
2023/06/13 01:11:46;;;;;;;10.20;4.07;;;19.50;89.90;;;;;;4903726;29;20047;-94
2023/06/13 01:14:57;;;;;;;8.57;4.38;;;19.40;90.10;;;;;;4903876;29;20111;-93
2023/06/13 01:17:42;;;;;;;9.20;4.50;;;19.40;90.10;;;;;;4888562;29;20039;-93
2023/06/13 01:20:16;;;;;;;8.55;4.40;;;19.30;90.20;;;;;;4888005;29;20044;-93
2023/06/13 01:23:15;;;;;;;9.25;4.22;;;19.30;90.30;;;;;;4888287;29;20072;-95
2023/06/13 01:25:59;;;;;;;8.57;4.38;;;19.30;90.40;;;;;;4897021;29;20038;-94
2023/06/13 01:28:32;;;;;;;7.40;4.18;;;19.20;90.50;;;;;;4904014;29;20051;-94
2023/06/13 01:31:16;;;;;;;8.25;4.03;;;19.20;90.60;;;;;;4907647;29;20039;-94
2023/06/13 01:33:45;;;;;;;10.57;4.32;;;19.10;90.60;;;;;;4900977;29;20092;-94
2023/06/13 01:36:15;;;;;;;9.82;4.00;;;19.10;90.60;;;;;;4907694;29;20039;-93
2023/06/13 01:38:43;;;;;;;9.10;4.15;;;19.10;90.70;;;;;;4938609;29;20055;-93
2023/06/13 01:41:11;;;;;;;8.13;3.80;;;19.00;90.80;;;;;;4891542;29;20035;-93
2023/06/13 01:43:51;;;;;;;8.45;4.10;;;18.90;90.90;;;;;;4892383;29;20418;-94
2023/06/13 01:46:54;;;;;;;14.57;4.10;;;18.90;91.00;;;;;;4919189;29;20083;-93
2023/06/13 01:49:26;;;;;;;8.70;4.05;;;18.90;91.10;;;;;;4891818;29;20032;-94
2023/06/13 01:52:31;;;;;;;8.93;4.47;;;18.90;91.20;;;;;;4892147;29;20422;-94
2023/06/13 01:55:08;;;;;;;7.47;4.17;;;18.90;91.10;;;;;;4907392;29;20036;-93
2023/06/13 01:57:48;;;;;;;12.38;4.63;;;18.80;91.20;;;;;;4907156;29;20028;-93
2023/06/13 02:00:48;;;;;;;10.00;3.90;;;18.80;91.30;;;;;;4894995;29;20448;-93
2023/06/13 02:03:31;;;;;;;13.07;4.40;;;18.70;91.30;;;;;;4907197;29;20031;-94
2023/06/13 02:06:02;;;;;;;;;;;18.70;91.30;;;;;;4891579;29;20063;-93
2023/06/13 02:08:31;;;;;;;7.03;3.60;;;18.60;91.40;;;;;;4875936;29;19915;-94
2023/06/13 02:11:11;;;;;;;7.30;3.85;;;18.60;91.40;;;;;;4906300;29;20039;-93
2023/06/13 02:13:48;;;;;;;7.18;3.80;;;18.60;91.50;;;;;;4870988;29;20083;-93
2023/06/13 02:16:25;;;;;;;9.77;3.65;;;18.60;91.50;;;;;;4873491;29;20042;-94
2023/06/13 02:18:59;;;;;;;7.07;3.78;;;18.50;91.50;;;;;;4887589;29;20048;-94
2023/06/13 02:21:29;;;;;;;7.40;4.30;;;18.50;91.50;;;;;;4872523;29;20449;-93
2023/06/13 02:24:14;;;;;;;7.05;3.97;;;18.50;92.00;;;;;;4903790;29;20288;-93
2023/06/13 02:26:50;;;;;;;9.07;3.70;;;18.50;91.60;;;;;;4910646;29;20086;-93
2023/06/13 02:29:20;;;;;;;;;;;18.40;91.70;;;;;;4878477;29;20044;-93
2023/06/13 02:31:51;;;;;;;7.18;3.38;;;18.40;91.70;;;;;;4872117;29;19911;-93
2023/06/13 02:34:30;;;;;;;6.00;3.38;;;18.40;91.80;;;;;;4891682;29;20045;-94
2023/06/13 02:37:02;;;;;;;7.05;3.97;;;18.40;91.80;;;;;;4910308;29;20059;-94
2023/06/13 02:39:31;;;;;;;7.93;3.90;;;18.40;91.80;;;;;;4924996;29;20039;-93
2023/06/13 02:41:57;;;;;;;8.88;4.18;;;18.30;91.90;;;;;;4907891;29;20489;-96
2023/06/13 02:44:27;;;;;;;7.53;3.72;;;18.30;92.00;;;;;;4893914;29;20044;-95
2023/06/13 02:47:11;;;;;;;5.72;3.58;;;18.30;92.00;;;;;;4876044;29;20114;-94
2023/06/13 02:49:45;;;;;;;8.88;4.00;;;18.20;92.00;;;;;;4891214;29;20086;-94
2023/06/13 02:52:21;;;;;;;9.18;3.90;;;18.20;92.10;;;;;;4890243;29;20092;-94
2023/06/13 02:55:07;;;;;;;12.07;4.40;;;18.20;92.20;;;;;;4907330;29;20028;-94
2023/06/13 02:57:33;;;;;;;9.45;4.03;;;18.20;92.20;;;;;;4890744;29;20067;-94
2023/06/13 03:00:07;;;;;;;6.68;3.88;;;18.20;92.20;;;;;;4890758;29;20040;-94
2023/06/13 03:02:36;;;;;;;10.10;4.00;;;18.10;92.20;;;;;;4891062;29;20318;-93
2023/06/13 03:05:16;;;;;;;9.68;4.03;;;18.10;92.30;;;;;;4905653;29;20039;-94
2023/06/13 03:07:46;;;;;;;7.90;3.88;;;18.00;92.30;;;;;;4890342;29;20028;-94
2023/06/13 03:10:38;;;;;;;7.70;3.85;;;18.00;92.30;;;;;;4882356;29;20044;-94
2023/06/13 03:13:12;;;;;;;10.85;4.00;;;18.00;92.40;;;;;;4889951;29;20394;-94
2023/06/13 03:15:45;;;;;;;6.72;4.28;;;17.90;92.30;;;;;;4887205;29;20035;-94
2023/06/13 03:18:15;;;;;;;7.68;3.95;;;17.90;92.30;;;;;;4922706;29;20067;-94
2023/06/13 03:20:47;;;;;;;6.90;3.90;;;17.90;92.30;;;;;;4909712;29;20066;-93
2023/06/13 03:23:21;;;;;;;7.13;3.85;;;17.90;92.30;;;;;;4924076;29;20143;-94
2023/06/13 03:26:03;;;;;;;10.20;4.20;;;17.80;92.30;;;;;;4925177;29;20046;-94
2023/06/13 03:28:31;;;;;;;8.13;4.05;;;17.80;92.30;;;;;;4910345;29;20119;-94
2023/06/13 03:31:07;;;;;;;7.35;4.00;;;17.70;92.30;;;;;;4927349;29;20039;-93
2023/06/13 03:33:41;;;;;;;9.57;4.18;;;17.70;92.40;;;;;;4943325;29;20038;-93
2023/06/13 03:36:14;;;;;;;10.88;4.38;;;17.70;92.50;;;;;;4943045;29;20042;-93
2023/06/13 03:38:59;;;;;;;7.38;3.92;;;17.70;92.60;;;;;;4929240;29;20103;-93
2023/06/13 03:41:35;;;;;;;10.75;4.47;;;17.70;92.60;;;;;;4944184;29;20078;-93
2023/06/13 03:44:05;;;;;;;7.55;4.10;;;17.70;92.60;;;;;;4942827;29;20337;-95
2023/06/13 03:46:38;;;;;;;10.35;4.07;;;17.70;92.60;;;;;;4942943;29;20437;-93
2023/06/13 03:49:26;;;;;;;;;;;;;;;;;;;;;
2023/06/13 03:51:58;;;;;;;8.52;4.22;;;17.60;92.80;;;;;;4913259;29;20090;-93
2023/06/13 03:54:30;;;;;;;7.53;3.90;;;17.60;92.70;;;;;;4942733;29;20035;-93
2023/06/13 03:56:58;;;;;;;11.32;4.90;;;17.60;92.70;;;;;;4927282;29;20046;-93
2023/06/13 03:59:33;;;;;;;12.60;4.00;;;17.50;92.60;;;;;;4911633;29;20098;-93
2023/06/13 04:02:24;;;;;;;8.73;4.18;;;17.50;92.70;;;;;;4927930;29;20425;-94
2023/06/13 04:05:00;;;;;;;9.70;4.43;;;17.50;92.80;;;;;;4928679;29;20031;-94
2023/06/13 04:07:34;;;;;;;10.60;4.20;;;17.40;92.80;;;;;;4959210;29;20058;-94
2023/06/13 04:10:07;;;;;;;6.30;4.00;;;17.40;92.80;;;;;;4926879;29;20037;-96
2023/06/13 04:12:44;;;;;;;7.95;4.10;;;17.40;92.90;;;;;;4911754;29;20373;-94
2023/06/13 04:15:25;;;;;;;9.05;4.30;;;17.40;92.90;;;;;;4929011;29;20030;-93
2023/06/13 04:17:58;;;;;;;7.18;4.53;;;17.40;92.90;;;;;;4927361;29;20039;-94
2023/06/13 04:20:34;;;;;;;8.85;4.38;;;17.40;92.90;;;;;;4942054;29;20074;-95
2023/06/13 04:23:10;;;;;;;8.05;4.22;;;17.40;92.90;;;;;;4942396;29;20102;-94
2023/06/13 04:25:51;;;;;;;8.23;4.07;;;17.40;92.90;;;;;;4928658;29;20031;-94
2023/06/13 04:28:20;;;;;;;9.40;4.25;;;17.40;93.00;;;;;;4926322;29;20134;-94
2023/06/13 04:30:51;;;;;;;7.60;3.90;;;17.40;93.00;;;;;;4913579;29;20058;-93
2023/06/13 04:33:18;;;;;;;6.22;4.05;;;17.40;93.10;;;;;;4928087;29;20527;-94
2023/06/13 04:35:44;;;;;;;10.75;4.32;;;17.40;93.10;;;;;;4927734;29;20035;-93
2023/06/13 04:38:21;;;;;;;8.45;3.92;;;17.40;93.10;;;;;;4928730;29;20042;-92
2023/06/13 04:40:48;;;;;;;10.65;4.10;;;17.40;93.00;;;;;;4926846;29;20037;-93
2023/06/13 04:43:17;;;;;;;10.05;4.25;;;17.40;93.00;;;;;;4959069;28;20028;-93
2023/06/13 04:46:03;;;;;;;8.57;4.40;;;17.40;93.00;;;;;;4935996;29;20074;-93
2023/06/13 04:48:44;;;;;;;9.32;4.40;;;17.40;93.00;;;;;;4909888;29;20440;-94
2023/06/13 04:51:13;;;;;;;10.55;3.88;;;17.40;92.90;;;;;;4908757;29;20044;-93
2023/06/13 04:53:39;;;;;;;8.15;4.28;;;17.40;92.90;;;;;;4907276;29;20039;-94
2023/06/13 04:56:13;;;;;;;6.07;3.97;;;17.40;92.90;;;;;;4911474;29;20043;-94
2023/06/13 05:02:46;;;;;;;7.53;4.28;;;17.40;92.90;;;;;;4877677;29;20052;-93
2023/06/13 05:05:18;;;;;;;6.97;4.00;;;17.50;92.80;;;;;;4866594;29;20127;-92
2023/06/13 05:07:55;;;;;;;7.82;3.70;;;17.50;92.70;;;;;;4923586;29;20063;-92
2023/06/13 05:10:39;;;;;;;;;;;;;;;;;;;;;
2023/06/13 05:13:05;;;;;;;9.02;4.00;;;17.50;92.60;;;;;;4938641;29;20049;-91
2023/06/13 05:15:51;;;;;;;10.82;4.22;;;17.60;92.60;;;;;;4922819;29;20035;-92
2023/06/13 05:18:35;;;;;;;;;;;;;;;;;;;;;
2023/06/13 05:21:19;;;;;;;8.02;3.97;;;17.60;92.60;;;;;;4923360;29;20031;-92
2023/06/13 05:23:59;;;;;;;10.30;5.00;;;17.60;92.70;;;;;;4925976;29;20031;-93
2023/06/13 05:28:21;;;;;;;7.75;3.88;;;17.70;92.40;;;;;;4881354;29;20040;-93
2023/06/13 05:34:36;;;;;;;;;;;17.80;92.30;;;;;;4860724;29;20029;-91
2023/06/13 05:37:10;;;;;;;13.15;3.97;;;17.70;92.10;;;;;;4940776;29;19917;-92
2023/06/13 05:39:38;;;;;;;6.35;3.78;;;17.80;92.00;;;;;;4909914;29;20098;-92
2023/06/13 05:42:04;;;;;;;8.45;4.50;;;17.80;91.70;;;;;;4925698;28;20042;-92
2023/06/13 05:44:30;;;;;;;13.05;4.40;;;17.90;91.80;;;;;;4911808;29;20048;-93
2023/06/13 05:47:01;;;;;;;10.82;4.40;;;17.90;91.80;;;;;;4914256;29;20142;-94
2023/06/13 05:49:40;;;;;;;9.32;4.40;;;17.90;91.90;;;;;;4926750;29;20342;-93
2023/06/13 05:52:07;;;;;;;8.32;4.20;;;17.90;92.10;;;;;;4924924;29;20468;-94
2023/06/13 05:54:33;;;;;;;11.15;4.32;;;18.00;91.90;;;;;;4957491;29;20031;-94
2023/06/13 05:57:11;;;;;;;7.07;3.78;;;18.00;91.80;;;;;;4902776;29;20035;-93
2023/06/13 05:59:47;;;;;;;8.23;4.15;;;18.10;91.70;;;;;;4888502;29;20040;-92
2023/06/13 06:02:16;;;;;;;6.20;3.50;;;18.20;91.60;;;;;;4888192;29;20088;-93
2023/06/13 06:04:56;;;;;;;8.50;4.28;;;18.20;91.50;;;;;;4902805;29;20450;-95
2023/06/13 06:07:41;;;;;;;8.40;3.80;;;18.20;91.20;;;;;;4892875;29;20032;-94
2023/06/13 06:10:10;;;;;;;8.57;3.65;;;18.30;91.40;;;;;;4904694;29;20039;-94
2023/06/13 06:12:44;;;;;;;9.50;4.20;;;18.30;91.40;;;;;;4922567;29;20665;-94
2023/06/13 06:15:16;;;;;;;6.05;3.67;;;18.40;91.30;;;;;;4928020;29;20034;-94
2023/06/13 06:17:45;;;;;;;7.70;3.92;;;18.40;91.70;;;;;;4950577;29;20028;-94
2023/06/13 06:20:21;;;;;;;10.27;3.70;;;18.50;91.10;;;;;;4925517;29;20041;-95
2023/06/13 06:22:53;;;;;;;9.23;3.92;;;18.60;90.90;;;;;;4909733;29;20437;-94
2023/06/13 06:25:38;;;;;;;9.32;4.13;;;18.60;90.70;;;;;;4905833;29;20430;-93
2023/06/13 06:28:09;;;;;;;7.93;3.47;;;18.60;90.60;;;;;;4875651;29;20063;-93
2023/06/13 06:31:05;;;;;;;7.55;3.42;;;18.70;90.40;;;;;;4904663;29;20091;-94
2023/06/13 06:33:31;;;;;;;6.63;3.38;;;18.80;90.30;;;;;;4939755;29;20032;-93
2023/06/13 06:36:08;;;;;;;9.35;3.30;;;18.80;90.20;;;;;;4924387;29;20024;-93
2023/06/13 06:38:46;;;;;;;7.00;3.42;;;18.90;90.00;;;;;;4908392;29;20149;-95
2023/06/13 06:42:00;;;;;;;6.97;3.30;;;19.00;90.30;;;;;;4940464;29;20031;-95
2023/06/13 06:44:45;;;;;;;;;;;19.10;90.00;;;;;;4907801;29;20043;-94
2023/06/13 06:47:17;;;;;;;7.13;3.20;;;19.10;90.30;;;;;;4940986;29;19925;-94
2023/06/13 06:50:06;;;;;;;6.72;3.50;;;19.20;90.10;;;;;;4917110;29;20069;-93
2023/06/13 06:52:32;;;;;;;7.65;3.22;;;19.30;90.00;;;;;;4912079;29;20131;-93
2023/06/13 06:55:08;;;;;;;;;;;;;;;;;;;;;
2023/06/13 06:57:49;;;;;;;;;;;;;;;;;;;;;
2023/06/13 07:00:25;;;;;;;7.25;3.10;;;19.60;89.90;;;;;;4911320;29;20405;-94
2023/06/13 07:02:55;;;;;;;7.43;3.20;;;19.70;90.00;;;;;;4893522;29;20122;-94
2023/06/13 07:05:37;;;;;;;9.93;3.25;;;19.80;90.00;;;;;;4907062;29;20039;-94
2023/06/13 07:08:08;;;;;;;10.70;3.60;;;19.90;89.70;;;;;;4890031;29;20142;-94
2023/06/13 07:10:37;;;;;;;6.60;2.83;;;20.00;89.40;;;;;;4889904;29;20216;-94
2023/06/13 07:13:18;;;;;;;;;;;20.20;90.10;;;;;;4906828;29;20434;-94
2023/06/13 07:15:49;;;;;;;11.27;3.13;;;20.20;90.20;;;;;;4906972;29;19950;-94
2023/06/13 07:18:20;;;;;;;6.13;3.20;;;20.40;90.00;;;;;;4910714;29;20147;-94
2023/06/13 07:21:01;;;;;;;8.95;3.58;;;20.50;89.60;;;;;;4878714;29;20042;-94
2023/06/13 07:23:56;;;;;;;8.18;3.30;;;20.60;89.50;;;;;;4888217;29;20036;-94
2023/06/13 07:26:27;;;;;;;9.35;3.20;;;20.70;89.20;;;;;;4889367;29;20043;-94
2023/06/13 07:29:05;;;;;;;8.18;2.72;;;20.80;88.80;;;;;;4903041;29;20071;-94
2023/06/13 07:31:36;;;;;;;8.85;3.05;;;20.90;88.00;;;;;;4928049;29;20094;-95
2023/06/13 07:34:05;;;;;;;7.63;3.03;;;21.00;86.70;;;;;;4942895;29;20085;-94
2023/06/13 07:36:59;;;;;;;8.00;3.10;;;21.10;86.00;;;;;;4929870;29;20031;-94
2023/06/13 07:39:30;;;;;;;5.95;2.70;;;21.20;85.30;;;;;;4921494;29;20029;-94
2023/06/13 07:42:06;;;;;;;6.07;2.90;;;21.30;85.00;;;;;;4920405;29;20099;-93
2023/06/13 07:44:55;;;;;;;9.30;2.95;;;21.30;84.00;;;;;;4874661;29;20040;-95
2023/06/13 07:47:24;;;;;;;6.90;3.00;;;21.40;84.60;;;;;;4877581;29;20088;-96
2023/06/13 07:49:52;;;;;;;8.02;2.88;;;21.60;84.30;;;;;;4911630;29;20040;-94
2023/06/13 07:52:50;;;;;;;5.85;2.90;;;21.60;83.70;;;;;;4929450;29;20027;-95
2023/06/13 07:55:28;;;;;;;8.45;2.90;;;21.70;83.20;;;;;;4913081;29;20086;-95
2023/06/13 07:58:15;;;;;;;7.03;2.75;;;21.80;83.90;;;;;;4891422;29;20140;-95
2023/06/13 08:00:53;;;;;;;7.35;2.75;;;21.90;82.30;;;;;;4920826;29;20116;-94
2023/06/13 08:03:44;;;;;;;6.45;2.63;;;22.00;82.60;;;;;;4878543;29;20126;-94
2023/06/13 08:06:23;;;;;;;6.50;2.60;;;22.10;80.80;;;;;;4897086;29;20488;-94
2023/06/13 08:08:58;;;;;;;5.43;2.67;;;22.20;80.70;;;;;;4889587;29;20108;-95
2023/06/13 08:11:31;;;;;;;9.05;2.58;;;22.30;80.70;;;;;;4905552;29;20036;-95
2023/06/13 08:14:15;;;;;;;5.03;3.05;;;22.40;79.80;;;;;;4905878;29;20028;-94
2023/06/13 08:17:05;;;;;;;5.75;2.88;;;22.50;80.20;;;;;;4922585;29;20698;-94
2023/06/13 08:19:58;;;;;;;6.38;2.75;;;22.70;79.90;;;;;;4907903;29;20054;-94
2023/06/13 08:22:41;;;;;;;;;;;;;;;;;;;;;
2023/06/13 08:25:22;;;;;;;4.70;2.72;;;22.90;79.00;;;;;;4890027;29;20341;-95
2023/06/13 08:27:52;;;;;;;7.25;2.70;;;23.00;77.90;;;;;;4905081;29;20518;-94
2023/06/13 08:30:23;;;;;;;9.52;3.10;;;23.20;77.40;;;;;;4882156;29;20028;-94
2023/06/13 08:33:12;;;;;;;;;;;;;;;;;;;;;
2023/06/13 08:35:48;;;;;;;8.07;3.50;;;23.30;75.50;;;;;;4888887;29;20043;-94
2023/06/13 08:38:26;;;;;;;5.57;2.85;;;23.50;75.60;;;;;;4889262;29;20131;-93
2023/06/13 08:41:09;;;;;;;7.78;3.17;;;23.50;75.50;;;;;;4904447;29;20024;-94
2023/06/13 08:43:35;;;;;;;6.80;3.00;;;23.60;75.70;;;;;;4913439;29;20031;-94
2023/06/13 08:46:04;;;;;;;10.93;3.10;;;23.70;75.60;;;;;;4910742;29;20050;-94
2023/06/13 08:48:42;;;;;;;13.27;3.13;;;23.70;75.80;;;;;;4911898;29;20058;-93
2023/06/13 08:51:18;;;;;;;7.35;3.20;;;23.80;75.50;;;;;;4917993;29;20047;-96
2023/06/13 08:53:56;;;;;;;4.80;3.13;;;24.00;76.20;;;;;;4892267;29;20036;-94
2023/06/13 08:57:02;;;;;;;8.05;3.28;;;24.10;76.30;;;;;;4925580;29;20031;-94
2023/06/13 08:59:45;;;;;;;8.98;3.72;;;24.20;75.70;;;;;;4908881;29;20126;-95
2023/06/13 09:02:33;;;;;;;6.95;3.35;;;24.30;75.70;;;;;;4908064;29;20031;-95
2023/06/13 09:05:36;;;;;;;4.70;2.95;;;24.50;75.80;;;;;;4923784;29;20083;-94
2023/06/13 09:08:17;;;;;;;;;;;;;;;;;;;;;
2023/06/13 09:11:10;;;;;;;7.65;3.40;;;24.60;76.20;;;;;;4939531;29;20043;-95
2023/06/13 09:13:54;;;;;;;;;;;;;;;;;;;;;
2023/06/13 09:16:54;;;;;;;;;;;;;;;;;;;;;
2023/06/13 09:19:35;;;;;;;6.47;2.90;;;24.80;75.90;;;;;;4956570;29;20374;-96
2023/06/13 09:22:43;;;;;;;6.18;3.30;;;24.90;75.90;;;;;;4925332;29;20449;-96
2023/06/13 09:25:16;;;;;;;10.93;3.50;;;25.00;75.70;;;;;;4942126;29;20058;-96
2023/06/13 09:27:56;;;;;;;8.23;3.38;;;25.10;75.70;;;;;;4941837;29;20039;-95
2023/06/13 09:30:36;;;;;;;5.90;3.20;;;25.20;75.90;;;;;;4940009;29;20420;-95
2023/06/13 09:33:23;;;;;;;6.32;2.88;;;25.30;75.30;;;;;;4926790;29;20440;-95
2023/06/13 09:36:02;;;;;;;7.38;3.38;;;25.30;75.50;;;;;;4941818;29;20425;-94
2023/06/13 09:38:29;;;;;;;6.32;3.00;;;25.40;75.40;;;;;;4933140;29;20047;-95
2023/06/13 09:41:12;;;;;;;;;;;;;;;;;;;;;
2023/06/13 09:44:00;;;;;;;8.88;3.75;;;25.50;75.20;;;;;;4922651;29;20032;-92
2023/06/13 09:46:31;;;;;;;6.70;3.28;;;25.50;74.70;;;;;;4907074;29;20051;-92
2023/06/13 09:49:41;;;;;;;5.40;3.22;;;25.50;75.00;;;;;;4911910;29;20118;-92
2023/06/13 09:52:19;;;;;;;6.75;2.85;;;25.60;73.70;;;;;;4900780;29;20054;-92
2023/06/13 09:55:13;;;;;;;6.68;3.17;;;25.70;74.10;;;;;;4933033;29;20038;-92
2023/06/13 09:57:43;;;;;;;6.50;3.28;;;25.70;74.50;;;;;;4913579;29;20111;-95
2023/06/13 10:00:19;;;;;;;4.85;3.00;;;25.70;74.10;;;;;;4929306;29;20027;-95
2023/06/13 10:03:13;;;;;;;6.82;3.20;;;25.70;74.80;;;;;;4945220;29;20126;-94
2023/06/13 10:06:02;;;;;;;;;;;;;;;;;;;;;
2023/06/13 10:08:50;;;;;;;4.53;3.05;;;25.80;74.50;;;;;;4947461;29;20035;-93
2023/06/13 10:11:38;;;;;;;6.95;2.88;;;25.90;74.80;;;;;;4931180;29;20123;-93
2023/06/13 10:14:45;;;;;;;5.75;2.97;;;25.90;76.30;;;;;;4960859;29;20035;-95
2023/06/13 10:17:31;;;;;;;;;;;;;;;;;;;;;
2023/06/13 10:20:35;;;;;;;6.22;2.90;;;25.90;75.80;;;;;;4933612;29;20122;-95
2023/06/13 10:23:34;;;;;;;5.00;2.67;;;25.90;76.60;;;;;;4918021;29;20101;-94
2023/06/13 10:26:24;;;;;;;6.80;2.67;;;25.90;77.30;;;;;;4945089;29;20063;-95
2023/06/13 10:29:05;;;;;;;8.32;2.85;;;26.00;77.70;;;;;;4928570;29;20035;-93
2023/06/13 10:31:56;;;;;;;7.75;2.70;;;26.10;78.20;;;;;;4911410;29;20028;-93
2023/06/13 10:34:34;;;;;;;5.38;2.67;;;26.10;78.30;;;;;;4910078;29;20302;-94
2023/06/13 10:37:30;;;;;;;;;;;;;;;;;;;;;
2023/06/13 10:41:00;;;;;;;;;;;;;;;;;;;;;
2023/06/13 10:44:00;;;;;;;8.93;3.10;;;26.10;82.70;;;;;;4952233;29;20134;-94
2023/06/13 10:46:53;;;;;;;7.03;2.90;;;26.10;78.70;;;;;;4934561;29;20523;-95
2023/06/13 10:49:22;;;;;;;6.82;2.83;;;26.00;79.50;;;;;;4913043;29;20102;-96
2023/06/13 10:52:15;;;;;;;10.90;2.80;;;26.00;78.30;;;;;;4944053;29;20035;-95
2023/06/13 10:55:19;;;;;;;;;;;;;;;;;;;;;
2023/06/13 10:58:06;;;;;;;5.40;2.72;;;26.00;79.70;;;;;;4947196;29;20065;-94
2023/06/13 11:00:38;;;;;;;7.85;2.80;;;25.90;79.70;;;;;;4930328;28;20360;-95
2023/06/13 11:03:12;;;;;;;6.25;3.00;;;25.90;78.50;;;;;;4928128;29;20038;-94
2023/06/13 11:05:48;;;;;;;5.78;2.72;;;25.90;79.10;;;;;;4944645;29;20047;-94
2023/06/13 11:09:13;;;;;;;6.80;2.63;;;26.00;81.20;;;;;;4949706;29;20328;-95
2023/06/13 11:11:58;;;;;;;7.80;2.80;;;26.10;79.80;;;;;;4911552;29;20032;-95
2023/06/13 11:15:20;;;;;;;7.95;2.88;;;26.10;78.70;;;;;;4912791;29;20111;-95
2023/06/13 11:18:05;;;;;;;7.95;3.35;;;26.00;78.80;;;;;;4928761;29;20258;-94
2023/06/13 11:20:58;;;;;;;5.95;2.47;;;26.00;76.50;;;;;;4925003;29;20394;-95
2023/06/13 11:24:07;;;;;;;6.55;2.50;;;25.90;75.30;;;;;;4924342;29;20047;-94
2023/06/13 11:27:04;;;;;;;9.02;2.70;;;25.80;75.60;;;;;;4917751;29;20035;-94
2023/06/13 11:29:44;;;;;;;5.95;2.20;;;25.90;75.80;;;;;;4910287;29;20035;-94
2023/06/13 11:32:39;;;;;;;;;;;;;;;;;;;;;
2023/06/13 11:35:31;;;;;;;4.03;2.00;;;25.90;75.30;;;;;;4909747;29;20361;-95
2023/06/13 11:38:45;;;;;;;5.63;2.30;;;26.00;75.00;;;;;;4926930;29;20306;-95
2023/06/13 11:41:52;;;;;;;;;;;;;;;;;;;;;
2023/06/13 11:45:04;;;;;;;5.80;2.42;;;26.00;73.90;;;;;;4925066;29;19911;-94
2023/06/13 11:48:27;;;;;;;;;;;;;;;;;;;;;
2023/06/13 11:51:41;;;;;;;;;;;;;;;;;;;;;
2023/06/13 11:54:17;;;;;;;5.50;2.30;;;25.80;74.50;;;;;;4930278;29;20460;-95
2023/06/13 11:57:21;;;;;;;;;;;;;;;;;;;;;
2023/06/13 12:00:17;;;;;;;;;;;;;;;;;;;;;
2023/06/13 12:03:02;;;;;;;6.72;1.88;;;25.60;75.00;;;;;;4949538;29;20456;-94
2023/06/13 12:05:43;;;;;;;5.60;2.20;;;25.50;76.60;;;;;;4958584;29;20467;-95
2023/06/13 12:11:53;;;;;;;5.03;1.87;;;25.70;77.90;;;;;;4946547;28;20046;-95
2023/06/13 12:15:13;;;;;;;;;;;;;;;;;;;;;
2023/06/13 12:18:32;;;;;;;;;;;;;;;;;;;;;
2023/06/13 12:24:38;;;;;;;9.30;2.40;;;25.70;79.40;;;;;;4922043;29;20384;-94
2023/06/13 12:27:40;;;;;;;6.75;2.10;;;25.70;79.60;;;;;;4924963;29;20373;-94
2023/06/13 12:30:19;;;;;;;7.00;2.15;;;25.80;80.40;;;;;;4908874;29;20028;-95
2023/06/13 12:33:35;;;;;;;;;;;;;;;;;;;;;
2023/06/13 12:36:48;;;;;;;10.57;2.83;;;25.70;80.90;;;;;;4930852;29;20447;-94
2023/06/13 12:39:30;;;;;;;;;;;;;;;;;;;;;
2023/06/13 12:42:36;;;;;;;12.30;2.17;;;25.90;82.00;;;;;;4919275;29;20126;-94
2023/06/13 12:45:06;;;;;;;6.50;2.00;;;25.90;82.70;;;;;;4926677;29;20045;-94
2023/06/13 12:48:08;;;;;;;;;;;;;;;;;;;;;
2023/06/13 12:50:57;;;;;;;;;;;;;;;;;;;;;
2023/06/13 12:53:54;;;;;;;;;;;;;;;;;;;;;
2023/06/13 12:56:51;;;;;;;7.70;2.72;;;25.90;82.80;;;;;;4926730;29;20038;-96
2023/06/13 12:59:35;;;;;;;8.70;2.58;;;25.80;83.70;;;;;;4928243;29;20069;-95
2023/06/13 13:02:24;;;;;;;8.75;2.53;;;25.80;83.60;;;;;;4928864;29;20130;-96
2023/06/13 13:05:03;;;;;;;8.15;2.53;;;25.70;83.90;;;;;;4943834;29;20038;-95
2023/06/13 13:07:54;;;;;;;8.50;2.15;;;25.70;83.80;;;;;;4936925;29;20047;-94
2023/06/13 13:10:48;;;;;;;;;;;;;;;;;;;;;
2023/06/13 13:13:18;;;;;;;14.05;2.70;;;25.70;84.80;;;;;;4947595;29;20043;-95
2023/06/13 13:15:59;;;;;;;;;;;;;;;;;;;;;
2023/06/13 13:19:21;;;;;;;12.30;2.55;;;25.80;85.10;;;;;;4925700;29;20074;-95
2023/06/13 13:22:17;;;;;;;11.50;2.50;;;25.90;85.40;;;;;;4933475;29;20437;-95
2023/06/13 13:25:06;;;;;;;6.87;2.40;;;25.90;85.40;;;;;;4940199;28;20047;-96
2023/06/13 13:27:51;;;;;;;;;;;;;;;;;;;;;
2023/06/13 13:30:39;;;;;;;9.25;2.47;;;25.80;85.50;;;;;;4944655;29;20356;-93
2023/06/13 13:33:18;;;;;;;;;;;;;;;;;;;;;
2023/06/13 13:35:49;;;;;;;8.95;2.47;;;25.90;86.00;;;;;;4929852;29;20075;-94
2023/06/13 13:38:25;;;;;;;9.68;2.42;;;26.00;86.20;;;;;;4938005;29;20023;-94
2023/06/13 13:41:32;;;;;;;8.20;2.42;;;26.00;86.80;;;;;;4919129;29;20099;-93
2023/06/13 13:44:22;;;;;;;11.45;2.60;;;26.10;87.30;;;;;;4917369;29;20055;-92
2023/06/13 13:47:14;;;;;;;7.60;2.50;;;26.20;87.20;;;;;;4915441;28;20054;-93
2023/06/13 13:49:50;;;;;;;;;;;;;;;;;;;;;
2023/06/13 13:52:39;;;;;;;8.65;2.50;;;26.20;87.10;;;;;;4922153;29;20039;-94
2023/06/13 13:55:48;;;;;;;7.22;2.50;;;26.10;87.00;;;;;;4935329;29;20062;-93
2023/06/13 13:58:48;;;;;;;12.40;3.13;;;26.20;88.20;;;;;;4913846;29;20341;-93
2023/06/13 14:01:48;;;;;;;9.45;2.60;;;26.20;87.90;;;;;;4929811;29;20050;-92
2023/06/13 14:04:56;;;;;;;;;;;;;;;;;;;;;
2023/06/13 14:07:59;;;;;;;8.10;2.53;;;26.30;88.00;;;;;;4923434;29;20043;-93
2023/06/13 14:10:50;;;;;;;8.57;2.85;;;26.30;88.20;;;;;;4908054;29;20031;-93
2023/06/13 14:14:10;;;;;;;7.90;2.75;;;26.40;88.10;;;;;;4933981;29;20086;-92
2023/06/13 14:17:12;;;;;;;9.02;2.35;;;26.30;88.10;;;;;;4920351;29;20321;-91
2023/06/13 14:20:55;;;;;;;;;;;;;;;;;;;;;
2023/06/13 14:23:57;;;;;;;9.52;2.20;;;26.40;87.30;;;;;;4928021;29;20038;-92
2023/06/13 14:26:50;;;;;;;6.90;2.53;;;26.40;87.40;;;;;;4907424;29;20049;-93
2023/06/13 14:29:51;;;;;;;8.65;2.33;;;26.40;87.50;;;;;;4914943;29;20050;-89
2023/06/13 14:32:50;;;;;;;7.05;2.40;;;26.40;87.50;;;;;;4931139;29;20145;-94
2023/06/13 14:35:24;;;;;;;10.30;2.70;;;26.40;88.00;;;;;;4911128;28;20043;-92
2023/06/13 14:38:42;;;;;;;6.35;2.53;;;26.40;87.70;;;;;;4942310;29;20050;-90
2023/06/13 14:41:43;;;;;;;7.50;2.50;;;26.50;87.60;;;;;;4931115;29;20062;-89
2023/06/13 14:44:35;;;;;;;;;;;;;;;;;;;;;
2023/06/13 14:47:18;;;;;;;9.38;2.40;;;26.40;87.00;;;;;;4920137;29;20607;-90
2023/06/13 14:50:13;;;;;;;8.15;2.60;;;26.50;87.60;;;;;;4932623;29;20125;-90
2023/06/13 14:52:46;;;;;;;8.15;2.40;;;26.70;87.40;;;;;;4928692;29;20023;-90
2023/06/13 14:55:38;;;;;;;;;;;;;;;;;;;;;
2023/06/13 14:58:27;;;;;;;;;;;;;;;;;;;;;
2023/06/13 15:01:27;;;;;;;;;;;;;;;;;;;;;
2023/06/13 15:04:57;;;;;;;7.00;2.58;;;26.60;87.90;;;;;;4926739;28;20035;-91
2023/06/13 15:07:59;;;;;;;;;;;;;;;;;;;;;
2023/06/13 15:10:31;;;;;;;10.90;2.60;;;26.90;87.30;;;;;;4948320;29;20058;-91
2023/06/13 15:13:20;;;;;;;;;;;;;;;;;;;;;
2023/06/13 15:15:57;;;;;;;7.18;3.00;;;26.80;85.20;;;;;;4950226;29;20054;-90
2023/06/13 15:19:05;;;;;;;14.32;4.90;;;26.70;85.30;;;;;;4924176;29;20033;-90